sensor_id;sensor_type;location;lat;lon;timestamp;pressure;altitude;pressure_sealevel;temperature
41940;BMP180;23057;48.554;14.454;2024-02-14T00:00:29;94124.00;;;7.00
41940;BMP180;23057;48.554;14.454;2024-02-14T00:03:00;94123.00;;;7.00
41940;BMP180;23057;48.554;14.454;2024-02-14T00:05:31;94118.00;;;7.00
41940;BMP180;23057;48.554;14.454;2024-02-14T00:08:02;94114.00;;;7.00
41940;BMP180;23057;48.554;14.454;2024-02-14T00:10:33;94112.00;;;7.00
41940;BMP180;23057;48.554;14.454;2024-02-14T00:13:04;94107.00;;;7.00
41940;BMP180;23057;48.554;14.454;2024-02-14T00:15:36;94127.00;;;7.00
41940;BMP180;23057;48.554;14.454;2024-02-14T00:18:07;94112.00;;;7.00
41940;BMP180;23057;48.554;14.454;2024-02-14T00:20:38;94125.00;;;7.00
41940;BMP180;23057;48.554;14.454;2024-02-14T00:23:09;94110.00;;;7.00
41940;BMP180;23057;48.554;14.454;2024-02-14T00:25:41;94117.00;;;7.00
41940;BMP180;23057;48.554;14.454;2024-02-14T00:28:12;94118.00;;;6.90
41940;BMP180;23057;48.554;14.454;2024-02-14T00:30:43;94124.00;;;6.90
41940;BMP180;23057;48.554;14.454;2024-02-14T00:33:14;94128.00;;;6.90
41940;BMP180;23057;48.554;14.454;2024-02-14T00:35:45;94122.00;;;6.90
41940;BMP180;23057;48.554;14.454;2024-02-14T00:38:16;94122.00;;;6.90
41940;BMP180;23057;48.554;14.454;2024-02-14T00:40:47;94125.00;;;6.80
41940;BMP180;23057;48.554;14.454;2024-02-14T00:43:18;94126.00;;;6.70
41940;BMP180;23057;48.554;14.454;2024-02-14T00:45:48;94121.00;;;6.70
41940;BMP180;23057;48.554;14.454;2024-02-14T00:48:19;94134.00;;;6.70
41940;BMP180;23057;48.554;14.454;2024-02-14T00:50:50;94140.00;;;6.60
41940;BMP180;23057;48.554;14.454;2024-02-14T00:53:22;94147.00;;;6.60
41940;BMP180;23057;48.554;14.454;2024-02-14T00:55:53;94144.00;;;6.60
41940;BMP180;23057;48.554;14.454;2024-02-14T00:58:24;94141.00;;;6.60
41940;BMP180;23057;48.554;14.454;2024-02-14T01:00:55;94143.00;;;6.60
41940;BMP180;23057;48.554;14.454;2024-02-14T01:03:26;94147.00;;;6.60
41940;BMP180;23057;48.554;14.454;2024-02-14T01:05:56;94136.00;;;6.60
41940;BMP180;23057;48.554;14.454;2024-02-14T01:08:27;94143.00;;;6.60
41940;BMP180;23057;48.554;14.454;2024-02-14T01:10:59;94146.00;;;6.60
41940;BMP180;23057;48.554;14.454;2024-02-14T01:13:30;94134.00;;;6.60
41940;BMP180;23057;48.554;14.454;2024-02-14T01:16:01;94135.00;;;6.60
41940;BMP180;23057;48.554;14.454;2024-02-14T01:18:32;94130.00;;;6.50
41940;BMP180;23057;48.554;14.454;2024-02-14T01:21:04;94135.00;;;6.60
41940;BMP180;23057;48.554;14.454;2024-02-14T01:23:35;94133.00;;;6.50
41940;BMP180;23057;48.554;14.454;2024-02-14T01:26:06;94124.00;;;6.50
41940;BMP180;23057;48.554;14.454;2024-02-14T01:28:37;94128.00;;;6.50
41940;BMP180;23057;48.554;14.454;2024-02-14T01:31:09;94133.00;;;6.40
41940;BMP180;23057;48.554;14.454;2024-02-14T01:33:41;94130.00;;;6.40
41940;BMP180;23057;48.554;14.454;2024-02-14T01:36:12;94129.00;;;6.40
41940;BMP180;23057;48.554;14.454;2024-02-14T01:38:43;94121.00;;;6.40
41940;BMP180;23057;48.554;14.454;2024-02-14T01:41:15;94125.00;;;6.40
41940;BMP180;23057;48.554;14.454;2024-02-14T01:43:47;94126.00;;;6.40
41940;BMP180;23057;48.554;14.454;2024-02-14T01:46:18;94121.00;;;6.50
41940;BMP180;23057;48.554;14.454;2024-02-14T01:48:49;94121.00;;;6.40
41940;BMP180;23057;48.554;14.454;2024-02-14T01:51:23;94120.00;;;6.50
41940;BMP180;23057;48.554;14.454;2024-02-14T01:53:55;94121.00;;;6.50
41940;BMP180;23057;48.554;14.454;2024-02-14T01:56:26;94118.00;;;6.50
41940;BMP180;23057;48.554;14.454;2024-02-14T01:59:00;94125.00;;;6.50
41940;BMP180;23057;48.554;14.454;2024-02-14T02:01:32;94126.00;;;6.50
41940;BMP180;23057;48.554;14.454;2024-02-14T02:04:04;94113.00;;;6.50
41940;BMP180;23057;48.554;14.454;2024-02-14T02:06:35;94104.00;;;6.60
41940;BMP180;23057;48.554;14.454;2024-02-14T02:09:06;94107.00;;;6.60
41940;BMP180;23057;48.554;14.454;2024-02-14T02:11:52;94117.00;;;6.60
41940;BMP180;23057;48.554;14.454;2024-02-14T02:14:26;94120.00;;;6.50
41940;BMP180;23057;48.554;14.454;2024-02-14T02:16:57;94119.00;;;6.50
41940;BMP180;23057;48.554;14.454;2024-02-14T02:19:28;94120.00;;;6.40
41940;BMP180;23057;48.554;14.454;2024-02-14T02:22:00;94124.00;;;6.40
41940;BMP180;23057;48.554;14.454;2024-02-14T02:24:31;94126.00;;;6.40
41940;BMP180;23057;48.554;14.454;2024-02-14T02:27:03;94125.00;;;6.40
41940;BMP180;23057;48.554;14.454;2024-02-14T02:29:35;94127.00;;;6.40
41940;BMP180;23057;48.554;14.454;2024-02-14T02:32:07;94129.00;;;6.40
41940;BMP180;23057;48.554;14.454;2024-02-14T02:34:40;94138.00;;;6.40
41940;BMP180;23057;48.554;14.454;2024-02-14T02:37:13;94124.00;;;6.40
41940;BMP180;23057;48.554;14.454;2024-02-14T02:39:44;94120.00;;;6.40
41940;BMP180;23057;48.554;14.454;2024-02-14T02:42:15;94123.00;;;6.30
41940;BMP180;23057;48.554;14.454;2024-02-14T02:44:48;94114.00;;;6.30
41940;BMP180;23057;48.554;14.454;2024-02-14T02:47:20;94115.00;;;6.30
41940;BMP180;23057;48.554;14.454;2024-02-14T02:49:51;94124.00;;;6.20
41940;BMP180;23057;48.554;14.454;2024-02-14T02:52:23;94116.00;;;6.20
41940;BMP180;23057;48.554;14.454;2024-02-14T02:54:54;94107.00;;;6.20
41940;BMP180;23057;48.554;14.454;2024-02-14T02:57:25;94116.00;;;6.20
41940;BMP180;23057;48.554;14.454;2024-02-14T02:59:57;94114.00;;;6.20
41940;BMP180;23057;48.554;14.454;2024-02-14T03:02:28;94110.00;;;6.10
41940;BMP180;23057;48.554;14.454;2024-02-14T03:04:59;94116.00;;;6.20
41940;BMP180;23057;48.554;14.454;2024-02-14T03:07:30;94110.00;;;6.20
41940;BMP180;23057;48.554;14.454;2024-02-14T03:10:01;94113.00;;;6.20
41940;BMP180;23057;48.554;14.454;2024-02-14T03:12:34;94122.00;;;6.30
41940;BMP180;23057;48.554;14.454;2024-02-14T03:15:06;94120.00;;;6.30
41940;BMP180;23057;48.554;14.454;2024-02-14T03:17:40;94121.00;;;6.30
41940;BMP180;23057;48.554;14.454;2024-02-14T03:20:13;94119.00;;;6.30
41940;BMP180;23057;48.554;14.454;2024-02-14T03:22:44;94116.00;;;6.20
41940;BMP180;23057;48.554;14.454;2024-02-14T03:25:18;94129.00;;;6.20
41940;BMP180;23057;48.554;14.454;2024-02-14T03:27:50;94121.00;;;6.20
41940;BMP180;23057;48.554;14.454;2024-02-14T03:30:23;94119.00;;;6.20
41940;BMP180;23057;48.554;14.454;2024-02-14T03:32:54;94120.00;;;6.20
41940;BMP180;23057;48.554;14.454;2024-02-14T03:35:26;94123.00;;;6.20
41940;BMP180;23057;48.554;14.454;2024-02-14T03:37:59;94126.00;;;6.20
41940;BMP180;23057;48.554;14.454;2024-02-14T03:40:31;94131.00;;;6.20
41940;BMP180;23057;48.554;14.454;2024-02-14T03:43:02;94133.00;;;6.20
41940;BMP180;23057;48.554;14.454;2024-02-14T03:45:33;94132.00;;;6.30
41940;BMP180;23057;48.554;14.454;2024-02-14T03:48:05;94137.00;;;6.30
41940;BMP180;23057;48.554;14.454;2024-02-14T03:50:36;94133.00;;;6.30
41940;BMP180;23057;48.554;14.454;2024-02-14T03:53:06;94138.00;;;6.30
41940;BMP180;23057;48.554;14.454;2024-02-14T03:55:38;94131.00;;;6.30
41940;BMP180;23057;48.554;14.454;2024-02-14T03:58:08;94130.00;;;6.20
41940;BMP180;23057;48.554;14.454;2024-02-14T04:00:39;94137.00;;;6.20
41940;BMP180;23057;48.554;14.454;2024-02-14T04:03:13;94134.00;;;6.20
41940;BMP180;23057;48.554;14.454;2024-02-14T04:05:44;94128.00;;;6.20
41940;BMP180;23057;48.554;14.454;2024-02-14T04:08:15;94137.00;;;6.30
41940;BMP180;23057;48.554;14.454;2024-02-14T04:10:46;94135.00;;;6.30
41940;BMP180;23057;48.554;14.454;2024-02-14T04:13:17;94134.00;;;6.30
41940;BMP180;23057;48.554;14.454;2024-02-14T04:15:48;94132.00;;;6.20
41940;BMP180;23057;48.554;14.454;2024-02-14T04:18:19;94132.00;;;6.20
41940;BMP180;23057;48.554;14.454;2024-02-14T04:20:50;94127.00;;;6.20
41940;BMP180;23057;48.554;14.454;2024-02-14T04:23:21;94128.00;;;6.20
41940;BMP180;23057;48.554;14.454;2024-02-14T04:25:53;94129.00;;;6.20
41940;BMP180;23057;48.554;14.454;2024-02-14T04:28:24;94132.00;;;6.30
41940;BMP180;23057;48.554;14.454;2024-02-14T04:30:55;94136.00;;;6.40
41940;BMP180;23057;48.554;14.454;2024-02-14T04:33:27;94140.00;;;6.40
41940;BMP180;23057;48.554;14.454;2024-02-14T04:35:57;94136.00;;;6.40
41940;BMP180;23057;48.554;14.454;2024-02-14T04:38:29;94133.00;;;6.40
41940;BMP180;23057;48.554;14.454;2024-02-14T04:41:00;94147.00;;;6.40
41940;BMP180;23057;48.554;14.454;2024-02-14T04:43:31;94134.00;;;6.40
41940;BMP180;23057;48.554;14.454;2024-02-14T04:46:01;94136.00;;;6.40
41940;BMP180;23057;48.554;14.454;2024-02-14T04:48:33;94132.00;;;6.40
41940;BMP180;23057;48.554;14.454;2024-02-14T04:51:04;94134.00;;;6.40
41940;BMP180;23057;48.554;14.454;2024-02-14T04:53:35;94131.00;;;6.40
41940;BMP180;23057;48.554;14.454;2024-02-14T04:56:06;94131.00;;;6.50
41940;BMP180;23057;48.554;14.454;2024-02-14T04:58:38;94130.00;;;6.50
41940;BMP180;23057;48.554;14.454;2024-02-14T05:01:09;94124.00;;;6.50
41940;BMP180;23057;48.554;14.454;2024-02-14T05:03:40;94138.00;;;6.40
41940;BMP180;23057;48.554;14.454;2024-02-14T05:06:11;94139.00;;;6.40
41940;BMP180;23057;48.554;14.454;2024-02-14T05:08:42;94137.00;;;6.30
41940;BMP180;23057;48.554;14.454;2024-02-14T05:11:13;94137.00;;;6.20
41940;BMP180;23057;48.554;14.454;2024-02-14T05:13:44;94136.00;;;6.20
41940;BMP180;23057;48.554;14.454;2024-02-14T05:16:19;94124.00;;;6.20
41940;BMP180;23057;48.554;14.454;2024-02-14T05:18:50;94123.00;;;6.20
41940;BMP180;23057;48.554;14.454;2024-02-14T05:21:21;94125.00;;;6.20
41940;BMP180;23057;48.554;14.454;2024-02-14T05:23:52;94124.00;;;6.20
41940;BMP180;23057;48.554;14.454;2024-02-14T05:26:23;94121.00;;;6.20
41940;BMP180;23057;48.554;14.454;2024-02-14T05:28:54;94116.00;;;6.20
41940;BMP180;23057;48.554;14.454;2024-02-14T05:31:42;94110.00;;;6.20
41940;BMP180;23057;48.554;14.454;2024-02-14T05:34:17;94115.00;;;6.20
41940;BMP180;23057;48.554;14.454;2024-02-14T05:36:48;94119.00;;;6.20
41940;BMP180;23057;48.554;14.454;2024-02-14T05:39:19;94116.00;;;6.20
41940;BMP180;23057;48.554;14.454;2024-02-14T05:41:50;94120.00;;;6.20
41940;BMP180;23057;48.554;14.454;2024-02-14T05:44:21;94117.00;;;6.20
41940;BMP180;23057;48.554;14.454;2024-02-14T05:46:53;94123.00;;;6.10
41940;BMP180;23057;48.554;14.454;2024-02-14T05:49:24;94133.00;;;6.10
41940;BMP180;23057;48.554;14.454;2024-02-14T05:51:55;94124.00;;;6.10
41940;BMP180;23057;48.554;14.454;2024-02-14T05:54:26;94123.00;;;6.10
41940;BMP180;23057;48.554;14.454;2024-02-14T05:56:56;94121.00;;;6.20
41940;BMP180;23057;48.554;14.454;2024-02-14T05:59:28;94127.00;;;6.20
41940;BMP180;23057;48.554;14.454;2024-02-14T06:01:59;94123.00;;;6.20
41940;BMP180;23057;48.554;14.454;2024-02-14T06:04:33;94115.00;;;6.10
41940;BMP180;23057;48.554;14.454;2024-02-14T06:07:04;94128.00;;;6.10
41940;BMP180;23057;48.554;14.454;2024-02-14T06:09:37;94128.00;;;6.10
41940;BMP180;23057;48.554;14.454;2024-02-14T06:12:09;94137.00;;;6.10
41940;BMP180;23057;48.554;14.454;2024-02-14T06:14:39;94146.00;;;6.00
41940;BMP180;23057;48.554;14.454;2024-02-14T06:17:10;94148.00;;;6.00
41940;BMP180;23057;48.554;14.454;2024-02-14T06:19:41;94157.00;;;6.00
41940;BMP180;23057;48.554;14.454;2024-02-14T06:22:12;94158.00;;;6.00
41940;BMP180;23057;48.554;14.454;2024-02-14T06:24:43;94164.00;;;6.00
41940;BMP180;23057;48.554;14.454;2024-02-14T06:27:14;94170.00;;;6.00
41940;BMP180;23057;48.554;14.454;2024-02-14T06:29:45;94172.00;;;6.10
41940;BMP180;23057;48.554;14.454;2024-02-14T06:32:16;94177.00;;;6.10
41940;BMP180;23057;48.554;14.454;2024-02-14T06:34:47;94177.00;;;6.10
41940;BMP180;23057;48.554;14.454;2024-02-14T06:37:18;94169.00;;;6.10
41940;BMP180;23057;48.554;14.454;2024-02-14T06:39:49;94170.00;;;6.10
41940;BMP180;23057;48.554;14.454;2024-02-14T06:42:19;94166.00;;;6.20
41940;BMP180;23057;48.554;14.454;2024-02-14T06:44:50;94183.00;;;6.30
41940;BMP180;23057;48.554;14.454;2024-02-14T06:47:21;94189.00;;;6.40
41940;BMP180;23057;48.554;14.454;2024-02-14T06:49:52;94190.00;;;6.60
41940;BMP180;23057;48.554;14.454;2024-02-14T06:52:24;94191.00;;;6.70
41940;BMP180;23057;48.554;14.454;2024-02-14T06:54:55;94195.00;;;6.80
41940;BMP180;23057;48.554;14.454;2024-02-14T06:57:26;94193.00;;;6.90
41940;BMP180;23057;48.554;14.454;2024-02-14T06:59:57;94195.00;;;7.00
41940;BMP180;23057;48.554;14.454;2024-02-14T07:02:28;94191.00;;;7.10
41940;BMP180;23057;48.554;14.454;2024-02-14T07:04:59;94200.00;;;7.30
41940;BMP180;23057;48.554;14.454;2024-02-14T07:07:30;94195.00;;;7.40
41940;BMP180;23057;48.554;14.454;2024-02-14T07:10:00;94195.00;;;7.50
41940;BMP180;23057;48.554;14.454;2024-02-14T07:12:32;94201.00;;;7.70
41940;BMP180;23057;48.554;14.454;2024-02-14T07:15:05;94200.00;;;7.80
41940;BMP180;23057;48.554;14.454;2024-02-14T07:17:38;94190.00;;;7.80
41940;BMP180;23057;48.554;14.454;2024-02-14T07:20:09;94195.00;;;7.90
41940;BMP180;23057;48.554;14.454;2024-02-14T07:22:40;94188.00;;;7.90
41940;BMP180;23057;48.554;14.454;2024-02-14T07:25:12;94192.00;;;8.00
41940;BMP180;23057;48.554;14.454;2024-02-14T07:27:42;94184.00;;;8.00
41940;BMP180;23057;48.554;14.454;2024-02-14T07:30:14;94188.00;;;8.10
41940;BMP180;23057;48.554;14.454;2024-02-14T07:32:45;94197.00;;;8.20
41940;BMP180;23057;48.554;14.454;2024-02-14T07:35:17;94208.00;;;8.40
41940;BMP180;23057;48.554;14.454;2024-02-14T07:37:48;94204.00;;;8.60
41940;BMP180;23057;48.554;14.454;2024-02-14T07:40:19;94206.00;;;8.80
41940;BMP180;23057;48.554;14.454;2024-02-14T07:42:51;94197.00;;;9.00
41940;BMP180;23057;48.554;14.454;2024-02-14T07:45:21;94192.00;;;9.10
41940;BMP180;23057;48.554;14.454;2024-02-14T07:47:52;94200.00;;;9.40
41940;BMP180;23057;48.554;14.454;2024-02-14T07:50:23;94196.00;;;9.60
41940;BMP180;23057;48.554;14.454;2024-02-14T07:52:54;94197.00;;;9.80
41940;BMP180;23057;48.554;14.454;2024-02-14T07:55:25;94204.00;;;9.80
41940;BMP180;23057;48.554;14.454;2024-02-14T07:57:56;94199.00;;;9.80
41940;BMP180;23057;48.554;14.454;2024-02-14T08:00:27;94207.00;;;9.80
41940;BMP180;23057;48.554;14.454;2024-02-14T08:02:58;94204.00;;;9.90
41940;BMP180;23057;48.554;14.454;2024-02-14T08:05:29;94214.00;;;9.90
41940;BMP180;23057;48.554;14.454;2024-02-14T08:07:59;94205.00;;;9.80
41940;BMP180;23057;48.554;14.454;2024-02-14T08:10:30;94214.00;;;9.90
41940;BMP180;23057;48.554;14.454;2024-02-14T08:13:01;94214.00;;;9.90
41940;BMP180;23057;48.554;14.454;2024-02-14T08:15:34;94210.00;;;9.90
41940;BMP180;23057;48.554;14.454;2024-02-14T08:18:05;94221.00;;;10.00
41940;BMP180;23057;48.554;14.454;2024-02-14T08:20:36;94218.00;;;10.20
41940;BMP180;23057;48.554;14.454;2024-02-14T08:23:07;94216.00;;;10.30
41940;BMP180;23057;48.554;14.454;2024-02-14T08:25:38;94224.00;;;10.50
41940;BMP180;23057;48.554;14.454;2024-02-14T08:28:10;94224.00;;;10.70
41940;BMP180;23057;48.554;14.454;2024-02-14T08:30:41;94224.00;;;10.90
41940;BMP180;23057;48.554;14.454;2024-02-14T08:33:12;94230.00;;;11.00
41940;BMP180;23057;48.554;14.454;2024-02-14T08:35:43;94221.00;;;11.20
41940;BMP180;23057;48.554;14.454;2024-02-14T08:38:14;94223.00;;;11.40
41940;BMP180;23057;48.554;14.454;2024-02-14T08:40:45;94225.00;;;11.50
41940;BMP180;23057;48.554;14.454;2024-02-14T08:43:16;94210.00;;;11.40
41940;BMP180;23057;48.554;14.454;2024-02-14T08:45:47;94214.00;;;11.50
41940;BMP180;23057;48.554;14.454;2024-02-14T08:48:18;94218.00;;;11.50
41940;BMP180;23057;48.554;14.454;2024-02-14T08:50:50;94215.00;;;11.50
41940;BMP180;23057;48.554;14.454;2024-02-14T08:53:20;94222.00;;;11.60
41940;BMP180;23057;48.554;14.454;2024-02-14T08:55:52;94223.00;;;11.50
41940;BMP180;23057;48.554;14.454;2024-02-14T08:58:23;94214.00;;;11.40
41940;BMP180;23057;48.554;14.454;2024-02-14T09:00:54;94214.00;;;11.40
41940;BMP180;23057;48.554;14.454;2024-02-14T09:03:25;94216.00;;;11.50
41940;BMP180;23057;48.554;14.454;2024-02-14T09:05:57;94214.00;;;11.40
41940;BMP180;23057;48.554;14.454;2024-02-14T09:08:28;94219.00;;;11.40
41940;BMP180;23057;48.554;14.454;2024-02-14T09:10:59;94219.00;;;11.40
41940;BMP180;23057;48.554;14.454;2024-02-14T09:13:29;94217.00;;;11.40
41940;BMP180;23057;48.554;14.454;2024-02-14T09:16:00;94221.00;;;11.50
41940;BMP180;23057;48.554;14.454;2024-02-14T09:18:31;94217.00;;;11.60
41940;BMP180;23057;48.554;14.454;2024-02-14T09:21:03;94225.00;;;11.70
41940;BMP180;23057;48.554;14.454;2024-02-14T09:23:35;94226.00;;;11.80
41940;BMP180;23057;48.554;14.454;2024-02-14T09:26:09;94221.00;;;12.00
41940;BMP180;23057;48.554;14.454;2024-02-14T09:28:41;94234.00;;;12.10
41940;BMP180;23057;48.554;14.454;2024-02-14T09:31:12;94224.00;;;12.20
41940;BMP180;23057;48.554;14.454;2024-02-14T09:33:43;94224.00;;;12.30
41940;BMP180;23057;48.554;14.454;2024-02-14T09:36:14;94233.00;;;12.40
41940;BMP180;23057;48.554;14.454;2024-02-14T09:38:46;94231.00;;;12.50
41940;BMP180;23057;48.554;14.454;2024-02-14T09:41:36;94237.00;;;12.60
41940;BMP180;23057;48.554;14.454;2024-02-14T09:44:10;94247.00;;;12.60
41940;BMP180;23057;48.554;14.454;2024-02-14T09:46:42;94240.00;;;12.60
41940;BMP180;23057;48.554;14.454;2024-02-14T09:49:16;94254.00;;;12.60
41940;BMP180;23057;48.554;14.454;2024-02-14T09:51:48;94254.00;;;12.60
41940;BMP180;23057;48.554;14.454;2024-02-14T09:54:20;94253.00;;;12.60
41940;BMP180;23057;48.554;14.454;2024-02-14T09:56:52;94261.00;;;12.60
41940;BMP180;23057;48.554;14.454;2024-02-14T09:59:26;94258.00;;;12.60
41940;BMP180;23057;48.554;14.454;2024-02-14T10:01:57;94257.00;;;12.60
41940;BMP180;23057;48.554;14.454;2024-02-14T10:04:28;94258.00;;;12.60
41940;BMP180;23057;48.554;14.454;2024-02-14T10:06:59;94258.00;;;12.60
41940;BMP180;23057;48.554;14.454;2024-02-14T10:09:41;94255.00;;;12.60
41940;BMP180;23057;48.554;14.454;2024-02-14T10:12:12;94247.00;;;12.60
41940;BMP180;23057;48.554;14.454;2024-02-14T10:14:43;94248.00;;;12.70
41940;BMP180;23057;48.554;14.454;2024-02-14T10:17:20;94255.00;;;12.70
41940;BMP180;23057;48.554;14.454;2024-02-14T10:19:59;94252.00;;;12.80
41940;BMP180;23057;48.554;14.454;2024-02-14T10:22:37;94242.00;;;12.90
41940;BMP180;23057;48.554;14.454;2024-02-14T10:25:09;94240.00;;;12.90
41940;BMP180;23057;48.554;14.454;2024-02-14T10:27:40;94240.00;;;13.00
41940;BMP180;23057;48.554;14.454;2024-02-14T10:30:12;94241.00;;;13.00
41940;BMP180;23057;48.554;14.454;2024-02-14T10:32:44;94245.00;;;13.00
41940;BMP180;23057;48.554;14.454;2024-02-14T10:35:21;94232.00;;;13.00
41940;BMP180;23057;48.554;14.454;2024-02-14T10:37:52;94249.00;;;13.00
41940;BMP180;23057;48.554;14.454;2024-02-14T10:40:28;94248.00;;;12.90
41940;BMP180;23057;48.554;14.454;2024-02-14T10:42:59;94237.00;;;12.90
41940;BMP180;23057;48.554;14.454;2024-02-14T10:45:30;94233.00;;;12.80
41940;BMP180;23057;48.554;14.454;2024-02-14T10:48:04;94227.00;;;12.80
41940;BMP180;23057;48.554;14.454;2024-02-14T10:50:41;94226.00;;;12.80
41940;BMP180;23057;48.554;14.454;2024-02-14T10:53:14;94223.00;;;12.70
41940;BMP180;23057;48.554;14.454;2024-02-14T10:55:49;94220.00;;;12.60
41940;BMP180;23057;48.554;14.454;2024-02-14T10:58:23;94222.00;;;12.60
41940;BMP180;23057;48.554;14.454;2024-02-14T11:00:56;94226.00;;;12.50
41940;BMP180;23057;48.554;14.454;2024-02-14T11:03:29;94222.00;;;12.50
41940;BMP180;23057;48.554;14.454;2024-02-14T11:06:02;94212.00;;;12.50
41940;BMP180;23057;48.554;14.454;2024-02-14T11:08:34;94214.00;;;12.60
41940;BMP180;23057;48.554;14.454;2024-02-14T11:11:06;94218.00;;;12.60
41940;BMP180;23057;48.554;14.454;2024-02-14T11:13:37;94215.00;;;12.50
41940;BMP180;23057;48.554;14.454;2024-02-14T11:16:09;94213.00;;;12.60
41940;BMP180;23057;48.554;14.454;2024-02-14T11:18:40;94214.00;;;12.60
41940;BMP180;23057;48.554;14.454;2024-02-14T11:21:17;94218.00;;;12.70
41940;BMP180;23057;48.554;14.454;2024-02-14T11:23:54;94214.00;;;12.70
41940;BMP180;23057;48.554;14.454;2024-02-14T11:26:25;94214.00;;;12.80
41940;BMP180;23057;48.554;14.454;2024-02-14T11:29:03;94210.00;;;12.90
41940;BMP180;23057;48.554;14.454;2024-02-14T11:31:35;94210.00;;;12.90
41940;BMP180;23057;48.554;14.454;2024-02-14T11:34:08;94213.00;;;12.90
41940;BMP180;23057;48.554;14.454;2024-02-14T11:36:43;94214.00;;;12.90
41940;BMP180;23057;48.554;14.454;2024-02-14T11:39:15;94225.00;;;12.90
41940;BMP180;23057;48.554;14.454;2024-02-14T11:41:46;94221.00;;;12.90
41940;BMP180;23057;48.554;14.454;2024-02-14T11:44:19;94221.00;;;12.90
41940;BMP180;23057;48.554;14.454;2024-02-14T11:46:52;94217.00;;;12.90
41940;BMP180;23057;48.554;14.454;2024-02-14T11:49:25;94209.00;;;12.90
41940;BMP180;23057;48.554;14.454;2024-02-14T11:51:56;94220.00;;;12.90
41940;BMP180;23057;48.554;14.454;2024-02-14T11:54:27;94214.00;;;12.90
41940;BMP180;23057;48.554;14.454;2024-02-14T11:56:59;94213.00;;;12.80
41940;BMP180;23057;48.554;14.454;2024-02-14T11:59:29;94223.00;;;12.90
41940;BMP180;23057;48.554;14.454;2024-02-14T12:02:00;94218.00;;;12.90
41940;BMP180;23057;48.554;14.454;2024-02-14T12:04:33;94224.00;;;12.90
41940;BMP180;23057;48.554;14.454;2024-02-14T12:07:04;94218.00;;;13.00
41940;BMP180;23057;48.554;14.454;2024-02-14T12:09:35;94216.00;;;13.00
41940;BMP180;23057;48.554;14.454;2024-02-14T12:12:06;94212.00;;;13.10
41940;BMP180;23057;48.554;14.454;2024-02-14T12:14:37;94214.00;;;13.20
41940;BMP180;23057;48.554;14.454;2024-02-14T12:17:09;94207.00;;;13.20
41940;BMP180;23057;48.554;14.454;2024-02-14T12:19:40;94195.00;;;13.30
41940;BMP180;23057;48.554;14.454;2024-02-14T12:22:11;94189.00;;;13.40
41940;BMP180;23057;48.554;14.454;2024-02-14T12:24:48;94197.00;;;13.40
41940;BMP180;23057;48.554;14.454;2024-02-14T12:27:19;94189.00;;;13.50
41940;BMP180;23057;48.554;14.454;2024-02-14T12:29:51;94194.00;;;13.60
41940;BMP180;23057;48.554;14.454;2024-02-14T12:32:22;94188.00;;;13.60
41940;BMP180;23057;48.554;14.454;2024-02-14T12:34:56;94196.00;;;13.60
41940;BMP180;23057;48.554;14.454;2024-02-14T12:37:28;94191.00;;;13.70
41940;BMP180;23057;48.554;14.454;2024-02-14T12:39:59;94190.00;;;13.70
41940;BMP180;23057;48.554;14.454;2024-02-14T12:42:30;94193.00;;;13.90
41940;BMP180;23057;48.554;14.454;2024-02-14T12:45:03;94191.00;;;14.00
41940;BMP180;23057;48.554;14.454;2024-02-14T12:47:34;94188.00;;;14.00
41940;BMP180;23057;48.554;14.454;2024-02-14T12:50:06;94188.00;;;14.10
41940;BMP180;23057;48.554;14.454;2024-02-14T12:52:40;94187.00;;;14.00
41940;BMP180;23057;48.554;14.454;2024-02-14T12:55:11;94183.00;;;14.10
41940;BMP180;23057;48.554;14.454;2024-02-14T12:57:42;94178.00;;;14.30
41940;BMP180;23057;48.554;14.454;2024-02-14T13:00:14;94181.00;;;14.40
41940;BMP180;23057;48.554;14.454;2024-02-14T13:02:45;94187.00;;;14.50
41940;BMP180;23057;48.554;14.454;2024-02-14T13:05:17;94192.00;;;14.80
41940;BMP180;23057;48.554;14.454;2024-02-14T13:07:48;94190.00;;;15.00
41940;BMP180;23057;48.554;14.454;2024-02-14T13:10:19;94180.00;;;15.20
41940;BMP180;23057;48.554;14.454;2024-02-14T13:12:50;94183.00;;;15.30
41940;BMP180;23057;48.554;14.454;2024-02-14T13:15:21;94176.00;;;15.40
41940;BMP180;23057;48.554;14.454;2024-02-14T13:17:52;94187.00;;;15.50
41940;BMP180;23057;48.554;14.454;2024-02-14T13:20:23;94181.00;;;15.50
41940;BMP180;23057;48.554;14.454;2024-02-14T13:22:55;94176.00;;;15.50
41940;BMP180;23057;48.554;14.454;2024-02-14T13:25:26;94180.00;;;15.50
41940;BMP180;23057;48.554;14.454;2024-02-14T13:27:56;94179.00;;;15.50
41940;BMP180;23057;48.554;14.454;2024-02-14T13:30:29;94180.00;;;15.40
41940;BMP180;23057;48.554;14.454;2024-02-14T13:33:00;94178.00;;;15.40
41940;BMP180;23057;48.554;14.454;2024-02-14T13:35:31;94170.00;;;15.40
41940;BMP180;23057;48.554;14.454;2024-02-14T13:38:08;94180.00;;;15.40
41940;BMP180;23057;48.554;14.454;2024-02-14T13:40:41;94179.00;;;15.40
41940;BMP180;23057;48.554;14.454;2024-02-14T13:43:12;94190.00;;;15.50
41940;BMP180;23057;48.554;14.454;2024-02-14T13:45:45;94179.00;;;15.80
41940;BMP180;23057;48.554;14.454;2024-02-14T13:48:18;94180.00;;;16.00
41940;BMP180;23057;48.554;14.454;2024-02-14T13:50:49;94186.00;;;16.10
41940;BMP180;23057;48.554;14.454;2024-02-14T13:53:20;94182.00;;;16.20
41940;BMP180;23057;48.554;14.454;2024-02-14T13:55:53;94181.00;;;16.20
41940;BMP180;23057;48.554;14.454;2024-02-14T13:58:24;94180.00;;;16.10
41940;BMP180;23057;48.554;14.454;2024-02-14T14:00:55;94180.00;;;16.00
41940;BMP180;23057;48.554;14.454;2024-02-14T14:03:26;94172.00;;;16.00
41940;BMP180;23057;48.554;14.454;2024-02-14T14:05:57;94172.00;;;16.00
41940;BMP180;23057;48.554;14.454;2024-02-14T14:08:28;94185.00;;;16.00
41940;BMP180;23057;48.554;14.454;2024-02-14T14:10:59;94186.00;;;15.90
41940;BMP180;23057;48.554;14.454;2024-02-14T14:13:30;94188.00;;;15.90
41940;BMP180;23057;48.554;14.454;2024-02-14T14:16:03;94195.00;;;15.90
41940;BMP180;23057;48.554;14.454;2024-02-14T14:18:35;94205.00;;;15.90
41940;BMP180;23057;48.554;14.454;2024-02-14T14:21:06;94200.00;;;15.80
41940;BMP180;23057;48.554;14.454;2024-02-14T14:23:37;94194.00;;;15.70
41940;BMP180;23057;48.554;14.454;2024-02-14T14:26:08;94203.00;;;15.70
41940;BMP180;23057;48.554;14.454;2024-02-14T14:28:39;94205.00;;;15.60